sensor_id;sensor_type;location;lat;lon;timestamp;P1;durP1;ratioP1;P2;durP2;ratioP2
82255;SDS011;71857;34.434;-117.370;2023-07-31T00:00:01;7.00;;;4.57;;
82255;SDS011;71857;34.434;-117.370;2023-07-31T00:00:32;9.40;;;4.85;;
82255;SDS011;71857;34.434;-117.370;2023-07-31T00:01:03;6.45;;;4.53;;
82255;SDS011;71857;34.434;-117.370;2023-07-31T00:01:34;6.20;;;4.18;;
82255;SDS011;71857;34.434;-117.370;2023-07-31T00:02:05;8.23;;;4.28;;
82255;SDS011;71857;34.434;-117.370;2023-07-31T00:02:35;8.82;;;4.45;;
82255;SDS011;71857;34.434;-117.370;2023-07-31T00:03:06;7.55;;;4.13;;
82255;SDS011;71857;34.434;-117.370;2023-07-31T00:03:37;8.57;;;3.90;;
82255;SDS011;71857;34.434;-117.370;2023-07-31T00:04:08;7.70;;;4.30;;
82255;SDS011;71857;34.434;-117.370;2023-07-31T00:04:38;6.40;;;3.78;;
82255;SDS011;71857;34.434;-117.370;2023-07-31T00:05:09;5.80;;;3.90;;
82255;SDS011;71857;34.434;-117.370;2023-07-31T00:05:40;7.28;;;3.85;;
82255;SDS011;71857;34.434;-117.370;2023-07-31T00:06:13;6.28;;;3.58;;
82255;SDS011;71857;34.434;-117.370;2023-07-31T00:06:44;7.07;;;3.72;;
82255;SDS011;71857;34.434;-117.370;2023-07-31T00:07:15;7.43;;;3.80;;
82255;SDS011;71857;34.434;-117.370;2023-07-31T00:07:46;6.70;;;3.70;;
82255;SDS011;71857;34.434;-117.370;2023-07-31T00:08:17;6.03;;;3.63;;
82255;SDS011;71857;34.434;-117.370;2023-07-31T00:08:47;7.30;;;3.78;;
82255;SDS011;71857;34.434;-117.370;2023-07-31T00:09:18;10.25;;;3.47;;
82255;SDS011;71857;34.434;-117.370;2023-07-31T00:09:49;6.00;;;3.33;;
82255;SDS011;71857;34.434;-117.370;2023-07-31T00:10:20;5.95;;;3.70;;
82255;SDS011;71857;34.434;-117.370;2023-07-31T00:10:51;6.05;;;3.38;;
82255;SDS011;71857;34.434;-117.370;2023-07-31T00:11:23;6.47;;;3.38;;
82255;SDS011;71857;34.434;-117.370;2023-07-31T00:11:56;7.18;;;3.80;;
82255;SDS011;71857;34.434;-117.370;2023-07-31T00:12:27;6.80;;;4.57;;
82255;SDS011;71857;34.434;-117.370;2023-07-31T00:12:58;7.88;;;3.33;;
82255;SDS011;71857;34.434;-117.370;2023-07-31T00:13:29;5.15;;;2.88;;
82255;SDS011;71857;34.434;-117.370;2023-07-31T00:13:59;5.88;;;2.60;;
82255;SDS011;71857;34.434;-117.370;2023-07-31T00:14:30;7.28;;;3.97;;
82255;SDS011;71857;34.434;-117.370;2023-07-31T00:15:01;6.90;;;3.35;;
82255;SDS011;71857;34.434;-117.370;2023-07-31T00:15:33;5.22;;;3.35;;
82255;SDS011;71857;34.434;-117.370;2023-07-31T00:16:03;6.30;;;2.45;;
82255;SDS011;71857;34.434;-117.370;2023-07-31T00:16:34;7.28;;;3.50;;
82255;SDS011;71857;34.434;-117.370;2023-07-31T00:17:05;6.43;;;3.17;;
82255;SDS011;71857;34.434;-117.370;2023-07-31T00:17:36;6.38;;;4.20;;
82255;SDS011;71857;34.434;-117.370;2023-07-31T00:18:07;5.43;;;2.83;;
82255;SDS011;71857;34.434;-117.370;2023-07-31T00:18:37;5.63;;;2.63;;
82255;SDS011;71857;34.434;-117.370;2023-07-31T00:19:08;6.45;;;2.53;;
82255;SDS011;71857;34.434;-117.370;2023-07-31T00:19:39;8.68;;;3.22;;
82255;SDS011;71857;34.434;-117.370;2023-07-31T00:20:13;6.60;;;3.80;;
82255;SDS011;71857;34.434;-117.370;2023-07-31T00:20:43;7.57;;;2.80;;
82255;SDS011;71857;34.434;-117.370;2023-07-31T00:21:14;6.20;;;3.40;;
82255;SDS011;71857;34.434;-117.370;2023-07-31T00:21:45;6.22;;;2.63;;
82255;SDS011;71857;34.434;-117.370;2023-07-31T00:22:16;5.78;;;2.83;;
82255;SDS011;71857;34.434;-117.370;2023-07-31T00:22:52;6.65;;;2.80;;
82255;SDS011;71857;34.434;-117.370;2023-07-31T00:23:23;5.18;;;3.00;;
82255;SDS011;71857;34.434;-117.370;2023-07-31T00:23:54;5.07;;;2.95;;
82255;SDS011;71857;34.434;-117.370;2023-07-31T00:24:24;6.15;;;2.83;;
82255;SDS011;71857;34.434;-117.370;2023-07-31T00:24:56;7.25;;;2.72;;
82255;SDS011;71857;34.434;-117.370;2023-07-31T00:25:26;6.50;;;3.13;;
82255;SDS011;71857;34.434;-117.370;2023-07-31T00:25:57;5.70;;;3.17;;
82255;SDS011;71857;34.434;-117.370;2023-07-31T00:26:28;4.80;;;2.15;;
82255;SDS011;71857;34.434;-117.370;2023-07-31T00:27:02;4.90;;;2.08;;
82255;SDS011;71857;34.434;-117.370;2023-07-31T00:27:33;5.68;;;2.55;;
82255;SDS011;71857;34.434;-117.370;2023-07-31T00:28:03;5.47;;;2.42;;
82255;SDS011;71857;34.434;-117.370;2023-07-31T00:28:34;4.45;;;2.53;;
82255;SDS011;71857;34.434;-117.370;2023-07-31T00:29:05;5.68;;;3.03;;
82255;SDS011;71857;34.434;-117.370;2023-07-31T00:29:36;4.65;;;2.78;;
82255;SDS011;71857;34.434;-117.370;2023-07-31T00:30:07;6.53;;;2.30;;
82255;SDS011;71857;34.434;-117.370;2023-07-31T00:30:40;6.22;;;2.00;;
82255;SDS011;71857;34.434;-117.370;2023-07-31T00:31:11;4.82;;;2.22;;
82255;SDS011;71857;34.434;-117.370;2023-07-31T00:31:42;5.55;;;2.65;;
82255;SDS011;71857;34.434;-117.370;2023-07-31T00:32:12;6.70;;;4.57;;
82255;SDS011;71857;34.434;-117.370;2023-07-31T00:32:43;6.68;;;5.70;;
82255;SDS011;71857;34.434;-117.370;2023-07-31T00:33:14;5.22;;;3.38;;
82255;SDS011;71857;34.434;-117.370;2023-07-31T00:33:45;6.07;;;3.92;;
82255;SDS011;71857;34.434;-117.370;2023-07-31T00:34:15;6.90;;;3.63;;
82255;SDS011;71857;34.434;-117.370;2023-07-31T00:34:46;6.15;;;3.33;;
82255;SDS011;71857;34.434;-117.370;2023-07-31T00:35:17;5.63;;;4.50;;
82255;SDS011;71857;34.434;-117.370;2023-07-31T00:35:48;7.32;;;2.22;;
82255;SDS011;71857;34.434;-117.370;2023-07-31T00:36:19;4.55;;;2.22;;
82255;SDS011;71857;34.434;-117.370;2023-07-31T00:36:49;5.78;;;2.10;;
82255;SDS011;71857;34.434;-117.370;2023-07-31T00:37:20;5.10;;;2.55;;
82255;SDS011;71857;34.434;-117.370;2023-07-31T00:37:51;6.35;;;2.30;;
82255;SDS011;71857;34.434;-117.370;2023-07-31T00:38:22;5.82;;;3.70;;
82255;SDS011;71857;34.434;-117.370;2023-07-31T00:38:52;5.32;;;2.00;;
82255;SDS011;71857;34.434;-117.370;2023-07-31T00:39:23;5.22;;;2.50;;
82255;SDS011;71857;34.434;-117.370;2023-07-31T00:39:54;5.25;;;4.35;;
82255;SDS011;71857;34.434;-117.370;2023-07-31T00:40:25;7.47;;;5.32;;
82255;SDS011;71857;34.434;-117.370;2023-07-31T00:40:55;6.80;;;5.25;;
82255;SDS011;71857;34.434;-117.370;2023-07-31T00:41:26;7.35;;;4.68;;
82255;SDS011;71857;34.434;-117.370;2023-07-31T00:41:57;6.20;;;4.03;;
82255;SDS011;71857;34.434;-117.370;2023-07-31T00:42:28;6.13;;;5.25;;
82255;SDS011;71857;34.434;-117.370;2023-07-31T00:42:58;7.22;;;3.67;;
82255;SDS011;71857;34.434;-117.370;2023-07-31T00:43:29;6.32;;;3.97;;
82255;SDS011;71857;34.434;-117.370;2023-07-31T00:44:00;7.20;;;5.30;;
82255;SDS011;71857;34.434;-117.370;2023-07-31T00:44:34;7.18;;;6.07;;
82255;SDS011;71857;34.434;-117.370;2023-07-31T00:45:05;6.30;;;4.53;;
82255;SDS011;71857;34.434;-117.370;2023-07-31T00:45:38;7.38;;;5.40;;
82255;SDS011;71857;34.434;-117.370;2023-07-31T00:46:09;5.90;;;4.65;;
82255;SDS011;71857;34.434;-117.370;2023-07-31T00:46:40;6.82;;;6.05;;
82255;SDS011;71857;34.434;-117.370;2023-07-31T00:47:10;5.55;;;3.30;;
82255;SDS011;71857;34.434;-117.370;2023-07-31T00:47:41;6.32;;;4.28;;
82255;SDS011;71857;34.434;-117.370;2023-07-31T00:48:12;5.60;;;4.57;;
82255;SDS011;71857;34.434;-117.370;2023-07-31T00:48:43;6.40;;;5.78;;
82255;SDS011;71857;34.434;-117.370;2023-07-31T00:49:14;6.85;;;6.07;;
82255;SDS011;71857;34.434;-117.370;2023-07-31T00:49:45;5.68;;;4.85;;
82255;SDS011;71857;34.434;-117.370;2023-07-31T00:50:16;4.43;;;3.15;;
82255;SDS011;71857;34.434;-117.370;2023-07-31T00:50:47;6.80;;;4.43;;
82255;SDS011;71857;34.434;-117.370;2023-07-31T00:51:18;6.18;;;3.83;;
82255;SDS011;71857;34.434;-117.370;2023-07-31T00:51:49;5.57;;;4.47;;
82255;SDS011;71857;34.434;-117.370;2023-07-31T00:52:19;6.95;;;6.28;;
82255;SDS011;71857;34.434;-117.370;2023-07-31T00:52:51;8.82;;;4.43;;
82255;SDS011;71857;34.434;-117.370;2023-07-31T00:53:22;9.57;;;5.22;;
82255;SDS011;71857;34.434;-117.370;2023-07-31T00:53:53;5.65;;;4.82;;
82255;SDS011;71857;34.434;-117.370;2023-07-31T00:54:26;6.50;;;5.65;;
82255;SDS011;71857;34.434;-117.370;2023-07-31T00:54:57;5.38;;;3.75;;
82255;SDS011;71857;34.434;-117.370;2023-07-31T00:55:28;5.10;;;3.22;;
82255;SDS011;71857;34.434;-117.370;2023-07-31T00:55:59;6.10;;;4.38;;
82255;SDS011;71857;34.434;-117.370;2023-07-31T00:56:30;7.78;;;5.82;;
82255;SDS011;71857;34.434;-117.370;2023-07-31T00:57:01;8.73;;;3.55;;
82255;SDS011;71857;34.434;-117.370;2023-07-31T00:57:33;5.25;;;3.22;;
82255;SDS011;71857;34.434;-117.370;2023-07-31T00:58:04;5.63;;;3.53;;
82255;SDS011;71857;34.434;-117.370;2023-07-31T00:58:34;6.25;;;3.33;;
82255;SDS011;71857;34.434;-117.370;2023-07-31T00:59:05;5.95;;;5.10;;
82255;SDS011;71857;34.434;-117.370;2023-07-31T00:59:36;6.38;;;4.95;;
82255;SDS011;71857;34.434;-117.370;2023-07-31T01:00:07;7.70;;;6.38;;
82255;SDS011;71857;34.434;-117.370;2023-07-31T01:00:38;5.90;;;4.25;;
82255;SDS011;71857;34.434;-117.370;2023-07-31T01:01:09;7.13;;;4.05;;
82255;SDS011;71857;34.434;-117.370;2023-07-31T01:01:43;5.82;;;4.53;;
82255;SDS011;71857;34.434;-117.370;2023-07-31T01:02:13;6.80;;;5.43;;
82255;SDS011;71857;34.434;-117.370;2023-07-31T01:02:44;6.15;;;4.95;;
82255;SDS011;71857;34.434;-117.370;2023-07-31T01:03:15;6.80;;;5.72;;
82255;SDS011;71857;34.434;-117.370;2023-07-31T01:03:46;7.53;;;6.82;;
82255;SDS011;71857;34.434;-117.370;2023-07-31T01:04:17;5.63;;;3.90;;
82255;SDS011;71857;34.434;-117.370;2023-07-31T01:04:48;5.22;;;4.47;;
82255;SDS011;71857;34.434;-117.370;2023-07-31T01:05:20;7.28;;;3.90;;
82255;SDS011;71857;34.434;-117.370;2023-07-31T01:05:57;6.40;;;5.53;;
82255;SDS011;71857;34.434;-117.370;2023-07-31T01:06:42;5.63;;;4.32;;
82255;SDS011;71857;34.434;-117.370;2023-07-31T01:07:22;6.25;;;4.22;;
82255;SDS011;71857;34.434;-117.370;2023-07-31T01:09:08;8.63;;;5.10;;
82255;SDS011;71857;34.434;-117.370;2023-07-31T01:10:26;6.45;;;3.97;;
82255;SDS011;71857;34.434;-117.370;2023-07-31T01:10:38;5.25;;;3.83;;
82255;SDS011;71857;34.434;-117.370;2023-07-31T01:12:00;5.65;;;4.30;;
82255;SDS011;71857;34.434;-117.370;2023-07-31T01:12:31;4.95;;;2.90;;
82255;SDS011;71857;34.434;-117.370;2023-07-31T01:13:02;5.10;;;3.63;;
82255;SDS011;71857;34.434;-117.370;2023-07-31T01:13:36;6.28;;;4.18;;
82255;SDS011;71857;34.434;-117.370;2023-07-31T01:14:07;5.10;;;3.67;;
82255;SDS011;71857;34.434;-117.370;2023-07-31T01:14:38;6.43;;;3.80;;
82255;SDS011;71857;34.434;-117.370;2023-07-31T01:15:12;5.65;;;4.15;;
82255;SDS011;71857;34.434;-117.370;2023-07-31T01:15:45;5.88;;;4.03;;
82255;SDS011;71857;34.434;-117.370;2023-07-31T01:16:16;6.45;;;3.65;;
82255;SDS011;71857;34.434;-117.370;2023-07-31T01:16:46;7.82;;;4.32;;
82255;SDS011;71857;34.434;-117.370;2023-07-31T01:17:17;6.45;;;3.28;;
82255;SDS011;71857;34.434;-117.370;2023-07-31T01:17:53;5.90;;;4.25;;
82255;SDS011;71857;34.434;-117.370;2023-07-31T01:18:24;5.07;;;2.67;;
82255;SDS011;71857;34.434;-117.370;2023-07-31T01:18:54;5.90;;;3.17;;
82255;SDS011;71857;34.434;-117.370;2023-07-31T01:19:25;4.43;;;3.05;;
82255;SDS011;71857;34.434;-117.370;2023-07-31T01:20:02;5.60;;;2.08;;
82255;SDS011;71857;34.434;-117.370;2023-07-31T01:21:08;6.40;;;2.33;;
82255;SDS011;71857;34.434;-117.370;2023-07-31T01:21:50;5.60;;;2.15;;
82255;SDS011;71857;34.434;-117.370;2023-07-31T01:26:03;6.22;;;2.03;;
82255;SDS011;71857;34.434;-117.370;2023-07-31T01:26:36;5.93;;;2.38;;
82255;SDS011;71857;34.434;-117.370;2023-07-31T01:27:10;6.55;;;2.33;;
82255;SDS011;71857;34.434;-117.370;2023-07-31T01:28:17;5.68;;;2.10;;
82255;SDS011;71857;34.434;-117.370;2023-07-31T01:29:33;5.25;;;2.40;;
82255;SDS011;71857;34.434;-117.370;2023-07-31T01:29:48;5.28;;;2.58;;
82255;SDS011;71857;34.434;-117.370;2023-07-31T01:30:21;7.35;;;2.55;;
82255;SDS011;71857;34.434;-117.370;2023-07-31T01:30:53;5.55;;;2.22;;
82255;SDS011;71857;34.434;-117.370;2023-07-31T01:31:25;5.28;;;2.20;;
82255;SDS011;71857;34.434;-117.370;2023-07-31T01:31:58;5.07;;;2.53;;
82255;SDS011;71857;34.434;-117.370;2023-07-31T01:32:30;8.73;;;2.47;;
82255;SDS011;71857;34.434;-117.370;2023-07-31T01:33:01;7.05;;;2.50;;
82255;SDS011;71857;34.434;-117.370;2023-07-31T01:33:36;6.65;;;2.25;;
82255;SDS011;71857;34.434;-117.370;2023-07-31T01:34:08;6.05;;;2.17;;
82255;SDS011;71857;34.434;-117.370;2023-07-31T01:34:39;6.55;;;2.08;;
82255;SDS011;71857;34.434;-117.370;2023-07-31T01:35:10;7.38;;;2.28;;
82255;SDS011;71857;34.434;-117.370;2023-07-31T01:35:42;4.90;;;2.03;;
82255;SDS011;71857;34.434;-117.370;2023-07-31T01:36:44;4.85;;;2.65;;
82255;SDS011;71857;34.434;-117.370;2023-07-31T01:37:15;6.45;;;3.28;;
82255;SDS011;71857;34.434;-117.370;2023-07-31T01:37:45;6.80;;;2.22;;
82255;SDS011;71857;34.434;-117.370;2023-07-31T01:38:20;5.57;;;2.22;;
82255;SDS011;71857;34.434;-117.370;2023-07-31T01:38:50;5.88;;;2.80;;
82255;SDS011;71857;34.434;-117.370;2023-07-31T01:39:21;5.40;;;2.10;;
82255;SDS011;71857;34.434;-117.370;2023-07-31T01:39:52;5.18;;;2.20;;
82255;SDS011;71857;34.434;-117.370;2023-07-31T01:40:23;6.60;;;2.10;;
82255;SDS011;71857;34.434;-117.370;2023-07-31T01:40:53;6.28;;;2.10;;
82255;SDS011;71857;34.434;-117.370;2023-07-31T01:41:24;5.07;;;2.40;;
82255;SDS011;71857;34.434;-117.370;2023-07-31T01:41:55;5.43;;;1.83;;
82255;SDS011;71857;34.434;-117.370;2023-07-31T01:42:26;4.80;;;2.00;;
82255;SDS011;71857;34.434;-117.370;2023-07-31T01:42:57;5.20;;;2.05;;
82255;SDS011;71857;34.434;-117.370;2023-07-31T01:43:27;5.65;;;2.38;;
82255;SDS011;71857;34.434;-117.370;2023-07-31T01:43:58;5.70;;;2.40;;
82255;SDS011;71857;34.434;-117.370;2023-07-31T01:44:29;5.97;;;2.30;;
82255;SDS011;71857;34.434;-117.370;2023-07-31T01:45:00;5.28;;;1.73;;
82255;SDS011;71857;34.434;-117.370;2023-07-31T01:45:30;5.13;;;2.15;;
82255;SDS011;71857;34.434;-117.370;2023-07-31T01:46:01;4.60;;;1.95;;
82255;SDS011;71857;34.434;-117.370;2023-07-31T01:46:32;6.97;;;2.30;;
82255;SDS011;71857;34.434;-117.370;2023-07-31T01:47:03;5.40;;;1.92;;
82255;SDS011;71857;34.434;-117.370;2023-07-31T01:47:33;5.68;;;2.35;;
82255;SDS011;71857;34.434;-117.370;2023-07-31T01:48:04;6.72;;;3.00;;
82255;SDS011;71857;34.434;-117.370;2023-07-31T01:48:35;7.07;;;3.60;;
82255;SDS011;71857;34.434;-117.370;2023-07-31T01:49:07;6.32;;;3.33;;
82255;SDS011;71857;34.434;-117.370;2023-07-31T01:49:37;8.95;;;4.13;;
82255;SDS011;71857;34.434;-117.370;2023-07-31T01:50:08;6.93;;;2.80;;
82255;SDS011;71857;34.434;-117.370;2023-07-31T01:50:39;5.47;;;2.30;;
82255;SDS011;71857;34.434;-117.370;2023-07-31T01:51:10;6.95;;;5.65;;
82255;SDS011;71857;34.434;-117.370;2023-07-31T01:51:41;5.65;;;2.28;;
82255;SDS011;71857;34.434;-117.370;2023-07-31T01:52:11;5.20;;;2.88;;
82255;SDS011;71857;34.434;-117.370;2023-07-31T01:52:42;14.82;;;13.43;;
82255;SDS011;71857;34.434;-117.370;2023-07-31T01:53:13;10.52;;;9.52;;
82255;SDS011;71857;34.434;-117.370;2023-07-31T01:53:44;6.43;;;2.28;;
82255;SDS011;71857;34.434;-117.370;2023-07-31T01:54:15;7.38;;;2.53;;
82255;SDS011;71857;34.434;-117.370;2023-07-31T01:54:46;10.13;;;8.85;;
82255;SDS011;71857;34.434;-117.370;2023-07-31T01:55:17;11.77;;;8.13;;
82255;SDS011;71857;34.434;-117.370;2023-07-31T01:55:47;8.60;;;2.53;;
82255;SDS011;71857;34.434;-117.370;2023-07-31T01:56:18;5.80;;;2.20;;
82255;SDS011;71857;34.434;-117.370;2023-07-31T01:56:49;4.32;;;2.00;;
82255;SDS011;71857;34.434;-117.370;2023-07-31T01:57:19;7.07;;;2.50;;
82255;SDS011;71857;34.434;-117.370;2023-07-31T01:57:51;5.65;;;2.55;;
82255;SDS011;71857;34.434;-117.370;2023-07-31T01:58:22;6.57;;;2.45;;
82255;SDS011;71857;34.434;-117.370;2023-07-31T01:58:53;6.30;;;2.60;;
82255;SDS011;71857;34.434;-117.370;2023-07-31T01:59:24;5.03;;;2.38;;
82255;SDS011;71857;34.434;-117.370;2023-07-31T01:59:54;6.75;;;4.28;;
82255;SDS011;71857;34.434;-117.370;2023-07-31T02:00:25;5.68;;;2.60;;
82255;SDS011;71857;34.434;-117.370;2023-07-31T02:00:56;5.80;;;2.40;;
82255;SDS011;71857;34.434;-117.370;2023-07-31T02:01:27;7.88;;;3.10;;
82255;SDS011;71857;34.434;-117.370;2023-07-31T02:01:58;6.70;;;3.00;;
82255;SDS011;71857;34.434;-117.370;2023-07-31T02:02:29;7.00;;;3.10;;
82255;SDS011;71857;34.434;-117.370;2023-07-31T02:02:59;6.50;;;2.20;;
82255;SDS011;71857;34.434;-117.370;2023-07-31T02:03:30;8.63;;;3.35;;
82255;SDS011;71857;34.434;-117.370;2023-07-31T02:04:01;7.55;;;2.95;;
82255;SDS011;71857;34.434;-117.370;2023-07-31T02:04:32;7.75;;;2.70;;
82255;SDS011;71857;34.434;-117.370;2023-07-31T02:05:02;8.13;;;3.00;;
82255;SDS011;71857;34.434;-117.370;2023-07-31T02:05:33;8.40;;;3.55;;
82255;SDS011;71857;34.434;-117.370;2023-07-31T02:06:04;18.58;;;16.95;;
82255;SDS011;71857;34.434;-117.370;2023-07-31T02:06:35;6.82;;;2.70;;
82255;SDS011;71857;34.434;-117.370;2023-07-31T02:07:05;8.07;;;3.00;;
82255;SDS011;71857;34.434;-117.370;2023-07-31T02:07:36;4.88;;;2.50;;
82255;SDS011;71857;34.434;-117.370;2023-07-31T02:08:10;6.88;;;4.93;;
82255;SDS011;71857;34.434;-117.370;2023-07-31T02:08:40;6.82;;;5.43;;
82255;SDS011;71857;34.434;-117.370;2023-07-31T02:09:11;10.43;;;7.53;;
82255;SDS011;71857;34.434;-117.370;2023-07-31T02:09:45;5.93;;;2.67;;
82255;SDS011;71857;34.434;-117.370;2023-07-31T02:10:18;6.85;;;2.35;;
82255;SDS011;71857;34.434;-117.370;2023-07-31T02:10:48;7.00;;;2.33;;
82255;SDS011;71857;34.434;-117.370;2023-07-31T02:11:19;6.82;;;2.30;;
82255;SDS011;71857;34.434;-117.370;2023-07-31T02:11:50;6.43;;;2.80;;
82255;SDS011;71857;34.434;-117.370;2023-07-31T02:12:21;7.38;;;2.63;;
82255;SDS011;71857;34.434;-117.370;2023-07-31T02:12:51;6.05;;;2.47;;
82255;SDS011;71857;34.434;-117.370;2023-07-31T02:13:22;7.72;;;2.50;;
82255;SDS011;71857;34.434;-117.370;2023-07-31T02:13:53;6.88;;;2.72;;
82255;SDS011;71857;34.434;-117.370;2023-07-31T02:14:23;7.60;;;3.00;;
82255;SDS011;71857;34.434;-117.370;2023-07-31T02:14:54;11.82;;;10.43;;
82255;SDS011;71857;34.434;-117.370;2023-07-31T02:15:25;14.75;;;13.32;;
82255;SDS011;71857;34.434;-117.370;2023-07-31T02:15:58;8.68;;;5.63;;
82255;SDS011;71857;34.434;-117.370;2023-07-31T02:16:29;10.68;;;9.60;;
82255;SDS011;71857;34.434;-117.370;2023-07-31T02:17:00;5.55;;;2.28;;
82255;SDS011;71857;34.434;-117.370;2023-07-31T02:17:30;5.85;;;2.38;;
82255;SDS011;71857;34.434;-117.370;2023-07-31T02:18:01;8.57;;;2.33;;
82255;SDS011;71857;34.434;-117.370;2023-07-31T02:18:32;6.90;;;2.67;;
82255;SDS011;71857;34.434;-117.370;2023-07-31T02:19:03;6.95;;;2.58;;
82255;SDS011;71857;34.434;-117.370;2023-07-31T02:19:33;8.90;;;2.60;;
82255;SDS011;71857;34.434;-117.370;2023-07-31T02:20:04;7.35;;;2.53;;
82255;SDS011;71857;34.434;-117.370;2023-07-31T02:20:35;6.80;;;2.75;;
82255;SDS011;71857;34.434;-117.370;2023-07-31T02:21:06;25.27;;;23.52;;
82255;SDS011;71857;34.434;-117.370;2023-07-31T02:21:37;28.50;;;26.50;;
82255;SDS011;71857;34.434;-117.370;2023-07-31T02:22:08;13.73;;;12.60;;
82255;SDS011;71857;34.434;-117.370;2023-07-31T02:22:38;9.05;;;6.70;;
82255;SDS011;71857;34.434;-117.370;2023-07-31T02:23:09;6.03;;;3.50;;
82255;SDS011;71857;34.434;-117.370;2023-07-31T02:23:40;7.97;;;5.65;;
82255;SDS011;71857;34.434;-117.370;2023-07-31T02:24:11;6.00;;;3.90;;
82255;SDS011;71857;34.434;-117.370;2023-07-31T02:24:42;5.05;;;2.70;;
82255;SDS011;71857;34.434;-117.370;2023-07-31T02:25:12;6.25;;;2.78;;
82255;SDS011;71857;34.434;-117.370;2023-07-31T02:25:43;4.93;;;2.58;;
82255;SDS011;71857;34.434;-117.370;2023-07-31T02:26:14;6.28;;;2.70;;
82255;SDS011;71857;34.434;-117.370;2023-07-31T02:26:45;5.22;;;2.70;;
82255;SDS011;71857;34.434;-117.370;2023-07-31T02:27:16;6.47;;;3.42;;
82255;SDS011;71857;34.434;-117.370;2023-07-31T02:27:46;7.20;;;2.95;;
82255;SDS011;71857;34.434;-117.370;2023-07-31T02:28:17;10.60;;;7.15;;
82255;SDS011;71857;34.434;-117.370;2023-07-31T02:28:48;9.60;;;3.40;;
82255;SDS011;71857;34.434;-117.370;2023-07-31T02:29:19;7.70;;;3.72;;
82255;SDS011;71857;34.434;-117.370;2023-07-31T02:29:50;11.63;;;10.52;;
82255;SDS011;71857;34.434;-117.370;2023-07-31T02:30:23;7.97;;;4.50;;
82255;SDS011;71857;34.434;-117.370;2023-07-31T02:30:54;7.10;;;3.05;;
82255;SDS011;71857;34.434;-117.370;2023-07-31T02:31:25;5.63;;;3.20;;
82255;SDS011;71857;34.434;-117.370;2023-07-31T02:31:56;6.38;;;2.90;;
82255;SDS011;71857;34.434;-117.370;2023-07-31T02:32:27;6.65;;;3.55;;
82255;SDS011;71857;34.434;-117.370;2023-07-31T02:33:00;7.43;;;3.42;;
82255;SDS011;71857;34.434;-117.370;2023-07-31T02:33:31;7.82;;;3.30;;
82255;SDS011;71857;34.434;-117.370;2023-07-31T02:34:02;7.25;;;3.50;;
82255;SDS011;71857;34.434;-117.370;2023-07-31T02:34:33;7.20;;;3.90;;
82255;SDS011;71857;34.434;-117.370;2023-07-31T02:35:04;8.63;;;3.85;;
82255;SDS011;71857;34.434;-117.370;2023-07-31T02:35:34;7.40;;;3.30;;
82255;SDS011;71857;34.434;-117.370;2023-07-31T02:36:05;8.45;;;3.45;;
82255;SDS011;71857;34.434;-117.370;2023-07-31T02:36:36;9.15;;;3.10;;
82255;SDS011;71857;34.434;-117.370;2023-07-31T02:37:07;8.80;;;3.13;;
82255;SDS011;71857;34.434;-117.370;2023-07-31T02:37:37;7.65;;;3.70;;
82255;SDS011;71857;34.434;-117.370;2023-07-31T02:38:09;10.48;;;4.05;;
82255;SDS011;71857;34.434;-117.370;2023-07-31T02:38:40;7.47;;;3.40;;
82255;SDS011;71857;34.434;-117.370;2023-07-31T02:39:10;6.47;;;2.97;;
82255;SDS011;71857;34.434;-117.370;2023-07-31T02:39:41;8.52;;;3.78;;
82255;SDS011;71857;34.434;-117.370;2023-07-31T02:40:12;10.80;;;7.85;;
82255;SDS011;71857;34.434;-117.370;2023-07-31T02:40:43;9.57;;;8.07;;
82255;SDS011;71857;34.434;-117.370;2023-07-31T02:41:13;11.05;;;5.80;;
82255;SDS011;71857;34.434;-117.370;2023-07-31T02:41:44;10.65;;;6.95;;
82255;SDS011;71857;34.434;-117.370;2023-07-31T02:42:15;10.32;;;8.65;;
82255;SDS011;71857;34.434;-117.370;2023-07-31T02:42:46;7.80;;;6.50;;
82255;SDS011;71857;34.434;-117.370;2023-07-31T02:43:17;8.48;;;6.55;;
82255;SDS011;71857;34.434;-117.370;2023-07-31T02:43:47;8.23;;;6.55;;
82255;SDS011;71857;34.434;-117.370;2023-07-31T02:44:18;8.77;;;6.63;;
82255;SDS011;71857;34.434;-117.370;2023-07-31T02:44:50;9.55;;;8.55;;
82255;SDS011;71857;34.434;-117.370;2023-07-31T02:45:26;10.43;;;6.28;;
82255;SDS011;71857;34.434;-117.370;2023-07-31T02:45:56;5.95;;;3.20;;
82255;SDS011;71857;34.434;-117.370;2023-07-31T02:46:27;10.48;;;3.10;;
82255;SDS011;71857;34.434;-117.370;2023-07-31T02:46:58;7.10;;;3.50;;
82255;SDS011;71857;34.434;-117.370;2023-07-31T02:47:29;7.90;;;3.30;;
82255;SDS011;71857;34.434;-117.370;2023-07-31T02:47:59;7.30;;;3.85;;
82255;SDS011;71857;34.434;-117.370;2023-07-31T02:48:30;9.40;;;3.63;;
82255;SDS011;71857;34.434;-117.370;2023-07-31T02:49:01;8.18;;;4.28;;
82255;SDS011;71857;34.434;-117.370;2023-07-31T02:49:32;8.65;;;3.60;;
82255;SDS011;71857;34.434;-117.370;2023-07-31T02:50:03;8.70;;;4.13;;
82255;SDS011;71857;34.434;-117.370;2023-07-31T02:50:34;9.65;;;3.97;;
82255;SDS011;71857;34.434;-117.370;2023-07-31T02:51:05;9.07;;;3.50;;
82255;SDS011;71857;34.434;-117.370;2023-07-31T02:51:35;12.10;;;6.75;;
82255;SDS011;71857;34.434;-117.370;2023-07-31T02:52:06;9.13;;;6.05;;
82255;SDS011;71857;34.434;-117.370;2023-07-31T02:52:37;10.05;;;6.00;;
82255;SDS011;71857;34.434;-117.370;2023-07-31T02:53:08;9.70;;;7.68;;
82255;SDS011;71857;34.434;-117.370;2023-07-31T02:53:38;10.20;;;8.98;;
82255;SDS011;71857;34.434;-117.370;2023-07-31T02:54:09;14.77;;;4.22;;
82255;SDS011;71857;34.434;-117.370;2023-07-31T02:54:40;11.13;;;9.27;;
82255;SDS011;71857;34.434;-117.370;2023-07-31T02:55:11;10.63;;;7.65;;
82255;SDS011;71857;34.434;-117.370;2023-07-31T02:55:41;9.55;;;7.50;;
82255;SDS011;71857;34.434;-117.370;2023-07-31T02:56:12;8.65;;;6.60;;
82255;SDS011;71857;34.434;-117.370;2023-07-31T02:56:43;10.05;;;5.10;;
82255;SDS011;71857;34.434;-117.370;2023-07-31T02:57:14;10.77;;;4.85;;
82255;SDS011;71857;34.434;-117.370;2023-07-31T02:57:44;8.02;;;4.68;;
82255;SDS011;71857;34.434;-117.370;2023-07-31T02:58:15;10.50;;;5.95;;
82255;SDS011;71857;34.434;-117.370;2023-07-31T02:58:46;8.85;;;4.78;;
82255;SDS011;71857;34.434;-117.370;2023-07-31T02:59:17;10.55;;;5.22;;
82255;SDS011;71857;34.434;-117.370;2023-07-31T02:59:48;10.02;;;5.75;;
82255;SDS011;71857;34.434;-117.370;2023-07-31T03:00:19;12.02;;;7.40;;
82255;SDS011;71857;34.434;-117.370;2023-07-31T03:00:50;13.85;;;6.07;;
82255;SDS011;71857;34.434;-117.370;2023-07-31T03:01:20;12.90;;;5.93;;
82255;SDS011;71857;34.434;-117.370;2023-07-31T03:01:51;11.45;;;6.15;;
82255;SDS011;71857;34.434;-117.370;2023-07-31T03:02:22;13.60;;;6.22;;
82255;SDS011;71857;34.434;-117.370;2023-07-31T03:02:53;12.05;;;6.75;;
82255;SDS011;71857;34.434;-117.370;2023-07-31T03:03:23;13.80;;;7.22;;
82255;SDS011;71857;34.434;-117.370;2023-07-31T03:03:54;10.77;;;6.15;;
82255;SDS011;71857;34.434;-117.370;2023-07-31T03:04:25;9.90;;;6.25;;
82255;SDS011;71857;34.434;-117.370;2023-07-31T03:04:56;11.07;;;6.63;;
82255;SDS011;71857;34.434;-117.370;2023-07-31T03:05:26;11.55;;;4.47;;
82255;SDS011;71857;34.434;-117.370;2023-07-31T03:05:57;9.40;;;4.28;;
82255;SDS011;71857;34.434;-117.370;2023-07-31T03:06:28;12.35;;;4.70;;
82255;SDS011;71857;34.434;-117.370;2023-07-31T03:06:58;11.00;;;4.57;;
82255;SDS011;71857;34.434;-117.370;2023-07-31T03:07:29;9.40;;;4.57;;